createdAt,value
2023-04-05T00:01:26.784Z,102637.06
2023-04-05T00:03:58.503Z,102454.31
2023-04-05T00:06:28.894Z,102596.22
2023-04-05T00:08:57.464Z,102643.81
2023-04-05T00:11:26.169Z,102567.19
2023-04-05T00:13:55.847Z,102637.78
2023-04-05T00:16:24.469Z,102608.91
2023-04-05T00:18:52.857Z,102437.84
2023-04-05T00:21:22.552Z,102585.72
2023-04-05T00:23:51.585Z,102607.47
2023-04-05T00:26:20.727Z,102545.78
2023-04-05T00:28:55.849Z,102632.69
2023-04-05T00:31:24.752Z,102577.47
2023-04-05T00:33:53.569Z,102593.94
2023-04-05T00:36:22.390Z,102636.00
2023-04-05T00:38:50.879Z,102547.81
2023-04-05T00:41:19.470Z,102571.94
2023-04-05T00:43:48.696Z,102567.97
2023-04-05T00:46:18.594Z,102638.19
2023-04-05T00:48:47.468Z,102617.66
2023-04-05T00:51:17.309Z,102640.63
2023-04-05T00:53:46.249Z,102512.50
2023-04-05T00:56:16.888Z,102618.41
2023-04-05T00:58:45.294Z,102615.19
2023-04-05T01:01:22.435Z,102609.00
2023-04-05T01:03:54.960Z,102484.97
2023-04-05T01:06:38.709Z,102591.09
2023-04-05T01:09:18.924Z,102573.84
2023-04-05T01:11:49.883Z,102518.09
2023-04-05T01:14:18.302Z,102612.53
2023-04-05T01:16:49.894Z,102591.75
2023-04-05T01:19:19.196Z,102567.66
2023-04-05T01:22:38.194Z,102585.09
2023-04-05T01:25:38.866Z,102558.19
2023-04-05T01:28:33.346Z,102605.53
2023-04-05T01:31:10.029Z,102525.69
2023-04-05T01:33:49.381Z,102571.63
2023-04-05T01:36:32.943Z,102542.47
2023-04-05T01:39:03.835Z,102589.31
2023-04-05T01:41:32.921Z,102505.97
2023-04-05T01:44:01.463Z,102595.97
2023-04-05T01:46:31.291Z,102589.91
2023-04-05T01:48:59.896Z,102529.25
2023-04-05T01:51:28.945Z,102585.94
2023-04-05T01:53:57.380Z,102582.56
2023-04-05T01:56:25.985Z,102575.91
2023-04-05T01:58:54.509Z,102576.06
2023-04-05T02:01:23.050Z,102535.50
2023-04-05T02:03:53.412Z,102556.31
2023-04-05T02:06:21.958Z,102390.97
2023-04-05T02:08:50.403Z,102564.81
2023-04-05T02:11:18.800Z,102554.06
2023-04-05T02:13:47.518Z,102558.88
2023-04-05T02:16:17.311Z,102533.34
2023-04-05T02:18:50.965Z,102558.25
2023-04-05T02:21:21.859Z,102554.59
2023-04-05T02:23:50.269Z,102551.09
2023-04-05T02:26:19.630Z,102516.03
2023-04-05T02:28:48.093Z,102556.75
2023-04-05T02:31:16.619Z,102440.97
2023-04-05T02:33:46.610Z,102550.38
2023-04-05T02:36:14.917Z,102403.75
2023-04-05T02:38:44.924Z,102540.59
2023-04-05T02:41:13.472Z,102430.91
2023-04-05T02:43:41.879Z,102540.69
2023-04-05T02:46:10.357Z,102451.47
2023-04-05T02:48:43.411Z,102476.25
2023-04-05T02:51:13.991Z,102459.34
2023-04-05T02:53:45.069Z,102542.72
2023-04-05T02:56:16.253Z,102497.34
2023-04-05T02:58:49.338Z,102523.78
2023-04-05T03:01:23.952Z,102528.38
2023-04-05T03:03:52.505Z,102488.91
2023-04-05T03:06:20.979Z,102531.25
2023-04-05T03:08:52.456Z,102473.72
2023-04-05T03:11:26.156Z,102522.53
2023-04-05T03:13:59.035Z,102454.94
2023-04-05T03:16:36.599Z,102494.28
2023-04-05T03:19:12.380Z,102508.91
2023-04-05T03:21:46.769Z,102514.78
2023-04-05T03:24:27.259Z,102485.66
2023-04-05T03:27:02.434Z,102476.97
2023-04-05T03:29:35.694Z,102513.88
2023-04-05T03:32:13.929Z,102472.59
2023-04-05T03:34:48.777Z,102498.16
2023-04-05T03:37:18.910Z,102509.41
2023-04-05T03:39:55.269Z,102504.13
2023-04-05T03:42:23.784Z,102507.13
2023-04-05T03:44:54.853Z,102506.22
2023-04-05T03:47:23.827Z,102508.78
2023-04-05T03:49:54.249Z,102490.69
2023-04-05T03:52:22.650Z,102436.13
2023-04-05T03:54:54.427Z,102507.31
2023-04-05T03:57:29.066Z,102494.81
2023-04-05T04:00:00.034Z,102512.91
2023-04-05T04:02:32.020Z,102495.88
2023-04-05T04:05:00.621Z,102478.84
2023-04-05T04:07:31.607Z,102501.25
2023-04-05T04:10:02.230Z,102461.34
2023-04-05T04:12:33.724Z,102415.16
2023-04-05T04:15:03.895Z,102491.22
2023-04-05T04:17:51.141Z,102510.28
2023-04-05T04:20:40.591Z,102503.53
2023-04-05T04:23:28.865Z,102456.63
2023-04-05T04:26:06.170Z,102454.91
2023-04-05T04:29:03.404Z,102450.38
2023-04-05T04:32:06.995Z,102479.31
2023-04-05T04:35:05.467Z,102502.63
2023-04-05T04:37:59.087Z,102462.56
2023-04-05T04:41:08.412Z,102497.03
2023-04-05T04:44:03.299Z,102508.19
2023-04-05T04:46:43.000Z,102496.13
2023-04-05T04:49:37.382Z,102489.28
2023-04-05T04:52:06.007Z,102413.00
2023-04-05T04:54:36.760Z,102496.03
2023-04-05T04:57:05.371Z,102499.63
2023-04-05T04:59:35.172Z,102495.06
2023-04-05T05:02:06.090Z,102501.97
2023-04-05T05:04:36.002Z,102491.44
2023-04-05T05:07:04.552Z,102477.72
2023-04-05T05:09:34.898Z,102483.03
2023-04-05T05:12:03.442Z,102499.44
2023-04-05T05:14:31.890Z,102501.97
2023-04-05T05:17:01.737Z,102499.50
2023-04-05T05:19:31.734Z,102487.63
2023-04-05T05:22:00.738Z,102506.63
2023-04-05T05:24:29.272Z,102454.13
2023-04-05T05:26:57.773Z,102500.06
2023-04-05T05:29:26.338Z,102503.44
2023-04-05T05:31:56.057Z,102504.06
2023-04-05T05:34:25.924Z,102484.97
2023-04-05T05:36:58.487Z,102503.81
2023-04-05T05:39:27.108Z,102458.09
2023-04-05T05:41:55.694Z,102472.13
2023-04-05T05:44:24.175Z,102482.19
2023-04-05T05:46:52.939Z,102469.59
2023-04-05T05:49:21.949Z,102504.03
2023-04-05T05:51:53.118Z,102427.31
2023-04-05T05:54:21.799Z,102453.66
2023-04-05T05:56:50.336Z,102462.03
2023-04-05T05:59:18.892Z,102504.78
2023-04-05T06:01:47.601Z,102484.41
2023-04-05T06:04:16.544Z,102473.88
2023-04-05T06:06:46.780Z,102507.34
2023-04-05T06:09:17.059Z,102480.81
2023-04-05T06:11:55.643Z,102513.97
2023-04-05T06:14:25.982Z,102499.16
2023-04-05T06:16:54.511Z,102501.09
2023-04-05T06:19:23.337Z,102511.31
2023-04-05T06:21:52.334Z,102510.91
2023-04-05T06:24:22.245Z,102502.00
2023-04-05T06:26:52.679Z,102447.25
2023-04-05T06:29:21.111Z,102507.41
2023-04-05T06:31:49.618Z,102473.13
2023-04-05T06:34:18.482Z,102471.16
2023-04-05T06:36:48.158Z,102512.09
2023-04-05T06:39:16.608Z,102509.66
2023-04-05T06:41:46.609Z,102504.06
2023-04-05T06:44:15.103Z,102507.16
2023-04-05T06:46:43.551Z,102458.25
2023-04-05T06:49:12.152Z,102504.84
2023-04-05T06:51:40.823Z,102478.34
2023-04-05T06:54:09.505Z,102502.19
2023-04-05T06:56:39.220Z,102473.38
2023-04-05T06:59:09.453Z,102496.59
2023-04-05T07:01:38.143Z,102495.09
2023-04-05T07:04:06.880Z,102503.63
2023-04-05T07:06:39.264Z,102503.38
2023-04-05T07:09:08.000Z,102493.63
2023-04-05T07:11:36.863Z,102491.09
2023-04-05T07:14:05.619Z,102501.00
2023-04-05T07:16:35.625Z,102458.34
2023-04-05T07:19:06.110Z,102499.94
2023-04-05T07:21:34.986Z,102451.88
2023-04-05T07:24:03.414Z,102474.22
2023-04-05T07:26:34.997Z,102481.28
2023-04-05T07:29:03.359Z,102484.91
2023-04-05T07:31:32.330Z,102483.06
2023-04-05T07:34:03.164Z,102458.63
2023-04-05T07:36:31.877Z,102439.66
2023-04-05T07:39:00.878Z,102492.38
2023-04-05T07:41:32.953Z,102488.78
2023-04-05T07:44:01.524Z,102462.88
2023-04-05T07:46:30.248Z,102489.81
2023-04-05T07:49:01.505Z,102492.25
2023-04-05T07:51:29.852Z,102487.28
2023-04-05T07:53:59.411Z,102486.34
2023-04-05T07:56:30.428Z,102407.56
2023-04-05T07:58:59.540Z,102456.91
2023-04-05T08:01:28.923Z,102426.66
2023-04-05T08:03:58.424Z,102463.63
2023-04-05T08:06:28.525Z,102499.63
2023-04-05T08:08:57.258Z,102500.16
2023-04-05T08:11:26.554Z,102407.56
2023-04-05T08:13:55.336Z,102412.00
2023-04-05T08:16:23.993Z,102432.41
2023-04-05T08:18:52.528Z,102479.50
2023-04-05T08:21:23.485Z,102485.75
2023-04-05T08:23:53.677Z,102435.16
2023-04-05T08:26:22.151Z,102456.78
2023-04-05T08:28:50.645Z,102339.34
2023-04-05T08:31:19.235Z,102462.47
2023-04-05T08:33:47.805Z,102467.66
2023-04-05T08:36:16.496Z,102440.06
2023-04-05T08:38:44.883Z,102466.66
2023-04-05T08:41:22.594Z,102420.50
2023-04-05T08:43:59.077Z,102469.03
2023-04-05T08:46:28.853Z,102463.44
2023-04-05T08:48:59.400Z,102451.59
2023-04-05T08:51:28.527Z,102418.91
2023-04-05T08:53:57.673Z,102414.72
2023-04-05T08:56:33.880Z,102427.34
2023-04-05T08:59:05.726Z,102436.47
2023-04-05T09:01:39.026Z,102440.94
2023-04-05T09:04:10.440Z,102454.34
2023-04-05T09:06:39.464Z,102455.66
2023-04-05T09:09:09.700Z,102454.44
2023-04-05T09:11:41.732Z,102383.91
2023-04-05T09:14:11.996Z,102458.16
2023-04-05T09:16:42.470Z,102435.94
2023-04-05T09:19:12.152Z,102461.13
2023-04-05T09:22:01.948Z,102453.53
2023-04-05T09:24:41.138Z,102326.53
2023-04-05T09:27:13.252Z,102449.00
2023-04-05T09:29:43.937Z,102416.03
2023-04-05T09:32:14.304Z,102436.66
2023-04-05T09:34:44.494Z,102410.97
2023-04-05T09:37:22.491Z,102412.50
2023-04-05T09:40:02.887Z,102428.19
2023-04-05T09:42:45.586Z,102439.94
2023-04-05T09:45:14.368Z,102417.16
2023-04-05T09:47:58.223Z,102412.25
2023-04-05T09:50:27.219Z,102431.47
2023-04-05T09:53:09.918Z,102436.88
2023-04-05T09:55:41.710Z,102437.13
2023-04-05T09:58:19.996Z,102411.31
2023-04-05T10:00:59.940Z,102381.81
2023-04-05T10:03:31.986Z,102404.13
2023-04-05T10:06:01.122Z,102368.84
2023-04-05T10:08:29.768Z,102428.94
2023-04-05T10:10:58.968Z,102393.53
2023-04-05T10:13:29.357Z,102421.34
2023-04-05T10:16:01.876Z,102397.91
2023-04-05T10:18:39.795Z,102385.06
2023-04-05T10:21:12.580Z,102416.63
2023-04-05T10:23:48.038Z,102411.44
2023-04-05T10:26:25.762Z,102413.53
2023-04-05T10:29:07.495Z,102390.28
2023-04-05T10:31:52.072Z,102386.28
2023-04-05T10:34:41.451Z,102413.47
2023-04-05T10:37:22.186Z,102406.53
2023-04-05T10:39:50.872Z,102408.75
2023-04-05T10:42:22.971Z,102351.25
2023-04-05T10:45:00.331Z,102403.97
2023-04-05T10:47:32.781Z,102356.69
2023-04-05T10:50:04.866Z,102405.34
2023-04-05T10:52:35.416Z,102406.63
2023-04-05T10:55:05.702Z,102395.69
2023-04-05T10:57:36.343Z,102392.44
2023-04-05T11:00:08.984Z,102363.31
2023-04-05T11:02:38.031Z,102391.59
2023-04-05T11:05:07.747Z,102367.06
2023-04-05T11:07:45.452Z,102362.94
2023-04-05T11:10:19.038Z,102384.81
2023-04-05T11:13:12.000Z,102381.03
2023-04-05T11:15:42.142Z,102374.16
2023-04-05T11:18:13.003Z,102357.03
2023-04-05T11:20:51.541Z,102370.91
2023-04-05T11:23:22.496Z,102366.91
2023-04-05T11:25:57.616Z,102351.81
2023-04-05T11:28:34.166Z,102365.56
2023-04-05T11:31:16.739Z,102336.84
2023-04-05T11:34:10.491Z,102335.16
2023-04-05T11:36:42.136Z,102331.22
2023-04-05T11:39:27.346Z,102361.28
2023-04-05T11:42:02.120Z,102358.69
2023-04-05T11:44:40.335Z,102353.06
2023-04-05T11:47:11.473Z,102347.63
2023-04-05T11:49:40.580Z,102343.09
2023-04-05T11:52:15.107Z,102334.19
2023-04-05T11:54:47.232Z,102333.66
2023-04-05T11:57:19.694Z,102336.75
2023-04-05T11:59:51.552Z,102335.09
2023-04-05T12:02:22.618Z,102327.56
2023-04-05T12:04:57.653Z,102310.34
2023-04-05T12:07:29.546Z,102305.81
2023-04-05T12:10:09.995Z,102328.03
2023-04-05T12:12:41.083Z,102314.03
2023-04-05T12:15:13.397Z,102314.69
2023-04-05T12:17:51.306Z,102286.41
2023-04-05T12:20:23.916Z,102306.59
2023-04-05T12:22:57.746Z,102303.16
2023-04-05T12:25:27.401Z,102284.81
2023-04-05T12:27:55.867Z,102308.59
2023-04-05T12:30:25.425Z,102303.53
2023-04-05T12:32:57.724Z,102283.00
2023-04-05T12:35:34.898Z,102284.31
2023-04-05T12:38:05.673Z,102297.34
2023-04-05T12:40:36.128Z,102301.13
2023-04-05T12:43:07.176Z,102276.84
2023-04-05T12:45:41.756Z,102279.69
2023-04-05T12:48:14.151Z,102272.03
2023-04-05T12:50:46.821Z,102241.63
2023-04-05T12:53:20.670Z,102267.38
2023-04-05T12:55:54.588Z,102245.41
2023-04-05T12:58:28.771Z,102257.66
2023-04-05T13:00:57.468Z,102280.47
2023-04-05T13:03:28.531Z,102269.00
2023-04-05T13:05:57.165Z,102267.44
2023-04-05T13:08:27.071Z,102232.09
2023-04-05T13:10:57.904Z,102262.94
2023-04-05T13:13:26.830Z,102256.19
2023-04-05T13:15:55.487Z,102254.25
2023-04-05T13:18:23.848Z,102240.34
2023-04-05T13:20:53.752Z,102221.66
2023-04-05T13:23:22.095Z,102249.28
2023-04-05T13:25:50.468Z,102245.06
2023-04-05T13:28:18.885Z,102232.28
2023-04-05T13:30:49.132Z,102239.03
2023-04-05T13:33:19.660Z,102229.28
2023-04-05T13:35:48.755Z,102216.66
2023-04-05T13:38:18.768Z,102239.44
2023-04-05T13:40:47.243Z,102220.88
2023-04-05T13:43:15.628Z,102225.09
2023-04-05T13:45:44.241Z,102226.63
2023-04-05T13:48:14.053Z,102224.09
2023-04-05T13:50:42.544Z,102208.56
2023-04-05T13:53:11.345Z,102180.28
2023-04-05T13:55:41.366Z,102189.38
2023-04-05T13:58:10.426Z,102206.22
2023-04-05T14:00:40.335Z,102214.13
2023-04-05T14:03:08.927Z,102196.25
2023-04-05T14:05:38.079Z,102169.59
2023-04-05T14:08:08.086Z,102212.22
2023-04-05T14:10:37.692Z,102197.41
2023-04-05T14:13:07.427Z,102205.69
2023-04-05T14:15:36.149Z,102196.94
2023-04-05T14:18:05.750Z,102199.47
2023-04-05T14:20:34.581Z,102176.56
2023-04-05T14:23:03.835Z,102193.25
2023-04-05T14:25:32.446Z,102191.91
2023-04-05T14:28:01.171Z,102178.06
2023-04-05T14:30:31.445Z,102158.72
2023-04-05T14:33:00.490Z,102106.16
2023-04-05T14:35:29.359Z,102186.84
2023-04-05T14:37:58.025Z,102139.00
2023-04-05T14:40:27.140Z,102128.22
2023-04-05T14:42:55.960Z,102117.91
2023-04-05T14:45:27.195Z,102164.03
2023-04-05T14:47:57.595Z,102134.28
2023-04-05T14:50:26.320Z,102159.72
2023-04-05T14:52:54.903Z,102069.28
2023-04-05T14:55:23.517Z,102151.94
2023-04-05T14:57:52.186Z,102115.19
2023-04-05T15:00:21.782Z,102115.13
2023-04-05T15:02:50.803Z,102111.22
2023-04-05T15:05:21.979Z,102110.00
2023-04-05T15:07:50.655Z,102136.34
2023-04-05T15:10:20.356Z,102137.50
2023-04-05T15:12:50.220Z,102133.69
2023-04-05T15:15:19.180Z,102135.78
2023-04-05T15:17:47.811Z,102131.34
2023-04-05T15:20:16.526Z,102133.38
2023-04-05T15:22:46.524Z,102105.19
2023-04-05T15:25:15.167Z,102114.19
2023-04-05T15:27:43.767Z,102122.94
2023-04-05T15:30:13.626Z,102098.81
2023-04-05T15:32:42.203Z,102109.91
2023-04-05T15:35:11.643Z,102038.34
2023-04-05T15:37:40.815Z,102079.03
2023-04-05T15:40:12.162Z,102083.75
2023-04-05T15:42:40.676Z,102101.78
2023-04-05T15:45:10.900Z,101979.03
2023-04-05T15:47:40.215Z,102057.91
2023-04-05T15:50:09.382Z,102028.50
2023-04-05T15:52:38.358Z,102107.50
2023-04-05T15:55:10.248Z,102093.50
2023-04-05T15:57:40.208Z,102050.91
2023-04-05T16:00:10.690Z,102093.97
2023-04-05T16:02:39.713Z,102097.22
2023-04-05T16:05:08.688Z,102030.22
2023-04-05T16:07:37.217Z,102094.66
2023-04-05T16:10:07.677Z,102081.88
2023-04-05T16:12:37.404Z,102083.75
2023-04-05T16:15:08.886Z,102087.66
2023-04-05T16:17:38.751Z,102090.50
2023-04-05T16:20:09.375Z,102056.16
2023-04-05T16:22:39.404Z,102012.19
2023-04-05T16:25:08.849Z,102063.19
2023-04-05T16:27:37.716Z,102020.59
2023-04-05T16:30:10.363Z,102025.06
2023-04-05T16:32:39.190Z,102083.69
2023-04-05T16:35:08.938Z,102074.34
2023-04-05T16:37:38.868Z,102079.03
2023-04-05T16:40:11.658Z,102030.34
2023-04-05T16:42:40.542Z,102077.78
2023-04-05T16:45:12.577Z,102057.53
2023-04-05T16:47:41.314Z,102080.00
2023-04-05T16:50:10.697Z,102074.31
2023-04-05T16:52:39.370Z,102046.16
2023-04-05T16:55:09.704Z,102068.13
2023-04-05T16:57:39.164Z,102058.66
2023-04-05T17:00:11.806Z,102067.19
2023-04-05T17:02:40.701Z,102069.63
2023-04-05T17:05:09.999Z,101989.53
2023-04-05T17:07:38.865Z,102065.28
2023-04-05T17:10:08.959Z,101987.63
2023-04-05T17:12:40.836Z,102074.72
2023-04-05T17:15:12.276Z,102049.94
2023-04-05T17:17:41.815Z,102057.22
2023-04-05T17:20:12.175Z,102046.63
2023-04-05T17:22:41.550Z,102015.47
2023-04-05T17:25:11.348Z,102000.38
2023-04-05T17:27:39.812Z,102066.13
2023-04-05T17:30:12.238Z,102025.81
2023-04-05T17:32:40.982Z,101845.66
2023-04-05T17:35:11.568Z,102075.03
2023-04-05T17:37:40.153Z,102063.66
2023-04-05T17:40:11.281Z,102075.53
2023-04-05T17:42:39.825Z,101974.56
2023-04-05T17:45:11.717Z,102018.09
2023-04-05T17:47:40.411Z,102073.84
2023-04-05T17:50:10.475Z,102033.41
2023-04-05T17:52:39.503Z,102077.19
2023-04-05T17:55:09.252Z,102076.44
2023-04-05T17:57:37.821Z,102048.28
2023-04-05T18:00:08.402Z,102083.41
2023-04-05T18:02:40.881Z,102077.47
2023-04-05T18:05:10.715Z,102068.41
2023-04-05T18:07:39.793Z,102033.72
2023-04-05T18:10:09.578Z,102083.06
2023-04-05T18:12:38.250Z,102081.56
2023-04-05T18:15:08.480Z,102079.81
2023-04-05T18:17:38.482Z,102077.06
2023-04-05T18:20:09.068Z,102050.78
2023-04-05T18:22:37.694Z,102057.06
2023-04-05T18:25:08.856Z,102080.66
2023-04-05T18:27:39.243Z,102033.25
2023-04-05T18:30:10.058Z,102037.75
2023-04-05T18:32:41.577Z,102074.41
2023-04-05T18:35:12.268Z,102082.06
2023-04-05T18:37:41.173Z,102090.16
2023-04-05T18:40:11.261Z,102076.22
2023-04-05T18:42:40.163Z,102089.53
2023-04-05T18:45:10.395Z,102060.72
2023-04-05T18:47:40.660Z,102081.38
2023-04-05T18:50:11.023Z,102092.78
2023-04-05T18:52:39.889Z,102066.91
2023-04-05T18:55:09.978Z,101966.03
2023-04-05T18:57:38.957Z,102054.72
2023-04-05T19:00:09.684Z,102053.00
2023-04-05T19:02:40.086Z,102105.72
2023-04-05T19:05:10.005Z,102100.47
2023-04-05T19:07:39.375Z,102042.72
2023-04-05T19:10:09.802Z,102091.44
2023-04-05T19:12:38.472Z,102103.19
2023-04-05T19:15:08.696Z,101963.63
2023-04-05T19:17:40.816Z,102027.81
2023-04-05T19:20:11.969Z,102107.09
2023-04-05T19:22:40.999Z,102095.00
2023-04-05T19:25:12.682Z,102057.44
2023-04-05T19:27:42.100Z,102102.25
2023-04-05T19:30:11.927Z,102080.06
2023-04-05T19:32:41.246Z,102107.56
2023-04-05T19:35:12.269Z,102030.50
2023-04-05T19:37:41.049Z,102100.03
2023-04-05T19:40:12.509Z,102088.78
2023-04-05T19:42:47.617Z,102057.56
2023-04-05T19:45:25.349Z,102075.16
2023-04-05T19:47:56.596Z,102086.94
2023-04-05T19:50:56.266Z,102072.81
2023-04-05T19:53:44.309Z,102064.13
2023-04-05T19:56:20.797Z,102081.94
2023-04-05T19:58:51.403Z,102056.78
2023-04-05T20:01:34.960Z,102032.25
2023-04-05T20:04:12.105Z,102077.47
2023-04-05T20:06:43.757Z,101993.06
2023-04-05T20:09:13.666Z,102073.31
2023-04-05T20:11:42.351Z,102029.94
2023-04-05T20:14:11.696Z,102022.63
2023-04-05T20:16:40.608Z,102027.03
2023-04-05T20:19:11.929Z,102076.03
2023-04-05T20:21:43.266Z,102057.56
2023-04-05T20:24:15.836Z,102071.91
2023-04-05T20:26:46.002Z,102067.00
2023-04-05T20:29:18.100Z,102058.78
2023-04-05T20:31:47.056Z,102064.63
2023-04-05T20:34:19.107Z,102064.00
2023-04-05T20:36:52.346Z,102024.63
2023-04-05T20:39:23.865Z,102058.03
2023-04-05T20:41:52.575Z,101958.94
2023-04-05T20:44:21.458Z,102052.13
2023-04-05T20:46:51.694Z,102030.81
2023-04-05T20:49:20.436Z,102028.91
2023-04-05T20:51:54.851Z,102047.78
2023-04-05T20:54:24.523Z,102050.34
2023-04-05T20:56:53.490Z,102046.75
2023-04-05T20:59:22.134Z,102044.59
2023-04-05T21:01:50.683Z,102041.19
2023-04-05T21:04:19.696Z,101999.56
2023-04-05T21:06:48.262Z,102039.53
2023-04-05T21:09:18.781Z,102035.19
2023-04-05T21:11:47.419Z,101976.34
2023-04-05T21:14:16.457Z,102033.34
2023-04-05T21:16:45.100Z,102026.06
2023-04-05T21:19:13.730Z,102029.09
2023-04-05T21:21:42.186Z,102032.47
2023-04-05T21:24:10.784Z,102023.69
2023-04-05T21:26:40.643Z,101988.38
2023-04-05T21:29:09.336Z,101973.66
2023-04-05T21:31:38.172Z,102027.13
2023-04-05T21:34:06.680Z,102000.09
2023-04-05T21:36:35.331Z,102018.78
2023-04-05T21:39:03.762Z,102022.28
2023-04-05T21:41:33.376Z,102017.34
2023-04-05T21:44:03.290Z,102013.09
2023-04-05T21:46:31.991Z,101987.56
2023-04-05T21:49:00.616Z,102021.47
2023-04-05T21:51:29.150Z,101803.94
2023-04-05T21:53:57.581Z,102018.00
2023-04-05T21:56:26.395Z,101978.78
2023-04-05T21:58:54.939Z,102020.84
2023-04-05T22:01:24.911Z,102019.38
2023-04-05T22:03:53.425Z,102021.72
2023-04-05T22:06:21.896Z,101896.13
2023-04-05T22:08:53.055Z,101845.19
2023-04-05T22:11:23.779Z,101930.59
2023-04-05T22:13:52.524Z,102016.66
2023-04-05T22:16:21.383Z,101971.72
2023-04-05T22:18:51.522Z,102014.25
2023-04-05T22:21:20.159Z,101812.97
2023-04-05T22:23:48.855Z,102007.84
2023-04-05T22:26:17.547Z,102007.97
2023-04-05T22:28:46.168Z,101954.56
2023-04-05T22:31:16.534Z,102000.72
2023-04-05T22:33:45.128Z,101958.13
2023-04-05T22:36:16.415Z,101899.34
2023-04-05T22:38:44.975Z,101963.72
2023-04-05T22:41:15.210Z,101985.66
2023-04-05T22:43:43.737Z,101929.69
2023-04-05T22:46:12.376Z,101987.53
2023-04-05T22:48:41.954Z,101875.94
2023-04-05T22:51:10.745Z,101987.63
2023-04-05T22:53:43.150Z,101917.53
2023-04-05T22:56:11.873Z,101942.53
2023-04-05T22:58:40.469Z,101980.22
2023-04-05T23:01:10.686Z,101913.06
2023-04-05T23:03:39.286Z,101974.88
2023-04-05T23:06:08.301Z,101961.50
2023-04-05T23:08:36.904Z,101930.47
2023-04-05T23:11:07.639Z,101965.41
2023-04-05T23:13:36.441Z,101962.00
2023-04-05T23:16:06.088Z,101965.59
2023-04-05T23:18:34.761Z,101913.47
2023-04-05T23:21:03.238Z,101958.91
2023-04-05T23:23:31.667Z,101960.28
2023-04-05T23:26:00.470Z,101898.03
2023-04-05T23:28:30.564Z,101896.84
2023-04-05T23:30:59.268Z,101949.81
2023-04-05T23:33:28.181Z,101765.59
2023-04-05T23:35:56.816Z,101909.44
2023-04-05T23:38:25.682Z,101940.72
2023-04-05T23:40:54.160Z,101927.53
2023-04-05T23:43:22.939Z,101935.78
2023-04-05T23:45:52.773Z,101837.63
2023-04-05T23:48:21.578Z,101926.50
2023-04-05T23:50:50.121Z,101940.03
2023-04-05T23:53:18.581Z,101689.09
2023-04-05T23:55:47.216Z,101745.09
2023-04-05T23:58:15.702Z,101926.25
